sensor_id;sensor_type;location;lat;lon;timestamp;pressure;altitude;pressure_sealevel;temperature;humidity
21760;BME280;11041;50.854;20.580;2023-03-19T00:00:16;98890.22;;;2.04;65.01
21760;BME280;11041;50.854;20.580;2023-03-19T00:03:03;98893.81;;;2.10;65.19
21760;BME280;11041;50.854;20.580;2023-03-19T00:05:29;98891.22;;;1.93;65.16
21760;BME280;11041;50.854;20.580;2023-03-19T00:07:56;98917.84;;;2.01;64.87
21760;BME280;11041;50.854;20.580;2023-03-19T00:10:23;98893.59;;;1.89;65.15
21760;BME280;11041;50.854;20.580;2023-03-19T00:12:49;98910.13;;;1.88;65.27
21760;BME280;11041;50.854;20.580;2023-03-19T00:15:16;98903.88;;;1.87;65.13
21760;BME280;11041;50.854;20.580;2023-03-19T00:17:43;98911.09;;;1.77;65.55
21760;BME280;11041;50.854;20.580;2023-03-19T00:20:12;98912.09;;;1.70;65.68
21760;BME280;11041;50.854;20.580;2023-03-19T00:22:40;98917.78;;;1.69;65.50
21760;BME280;11041;50.854;20.580;2023-03-19T00:25:08;98888.25;;;1.45;65.83
21760;BME280;11041;50.854;20.580;2023-03-19T00:27:36;98884.38;;;1.41;65.79
21760;BME280;11041;50.854;20.580;2023-03-19T00:30:05;98899.38;;;1.49;66.17
21760;BME280;11041;50.854;20.580;2023-03-19T00:32:33;98906.63;;;1.43;66.41
21760;BME280;11041;50.854;20.580;2023-03-19T00:35:03;98901.97;;;1.39;66.63
21760;BME280;11041;50.854;20.580;2023-03-19T00:37:31;98901.91;;;1.34;66.82
21760;BME280;11041;50.854;20.580;2023-03-19T00:39:59;98889.50;;;1.16;66.55
21760;BME280;11041;50.854;20.580;2023-03-19T00:42:25;98891.63;;;1.14;66.92
21760;BME280;11041;50.854;20.580;2023-03-19T00:44:52;98889.78;;;0.97;67.28
21760;BME280;11041;50.854;20.580;2023-03-19T00:47:18;98918.38;;;1.10;67.23
21760;BME280;11041;50.854;20.580;2023-03-19T00:49:45;98890.97;;;0.84;67.81
21760;BME280;11041;50.854;20.580;2023-03-19T00:52:13;98886.28;;;0.80;67.97
21760;BME280;11041;50.854;20.580;2023-03-19T00:54:39;98909.22;;;0.94;67.94
21760;BME280;11041;50.854;20.580;2023-03-19T00:57:07;98911.28;;;0.87;67.91
21760;BME280;11041;50.854;20.580;2023-03-19T00:59:34;98893.19;;;0.71;68.33
21760;BME280;11041;50.854;20.580;2023-03-19T01:02:01;98908.41;;;0.77;68.33
21760;BME280;11041;50.854;20.580;2023-03-19T01:04:27;98914.88;;;0.76;68.83
21760;BME280;11041;50.854;20.580;2023-03-19T01:06:54;98909.41;;;0.71;68.66
21760;BME280;11041;50.854;20.580;2023-03-19T01:09:20;98883.34;;;0.48;69.32
21760;BME280;11041;50.854;20.580;2023-03-19T01:11:47;98908.59;;;0.53;69.09
21760;BME280;11041;50.854;20.580;2023-03-19T01:14:15;98885.47;;;0.46;69.84
21760;BME280;11041;50.854;20.580;2023-03-19T01:16:44;98888.09;;;0.40;69.70
21760;BME280;11041;50.854;20.580;2023-03-19T01:19:10;98900.00;;;0.56;70.23
21760;BME280;11041;50.854;20.580;2023-03-19T01:21:38;98875.72;;;0.28;70.77
21760;BME280;11041;50.854;20.580;2023-03-19T01:24:04;98881.06;;;0.23;70.65
21760;BME280;11041;50.854;20.580;2023-03-19T01:26:31;98883.09;;;0.32;70.56
21760;BME280;11041;50.854;20.580;2023-03-19T01:28:57;98882.28;;;0.32;70.74
21760;BME280;11041;50.854;20.580;2023-03-19T01:31:24;98902.09;;;0.37;70.61
21760;BME280;11041;50.854;20.580;2023-03-19T01:33:51;98890.22;;;0.38;70.72
21760;BME280;11041;50.854;20.580;2023-03-19T01:36:18;98875.66;;;0.23;70.50
21760;BME280;11041;50.854;20.580;2023-03-19T01:38:44;98899.91;;;0.34;70.72
21760;BME280;11041;50.854;20.580;2023-03-19T01:41:11;98908.09;;;0.39;71.03
21760;BME280;11041;50.854;20.580;2023-03-19T01:43:38;98904.00;;;0.37;71.19
21760;BME280;11041;50.854;20.580;2023-03-19T01:46:11;98892.19;;;0.26;71.51
21760;BME280;11041;50.854;20.580;2023-03-19T01:48:45;98875.63;;;0.06;71.26
21760;BME280;11041;50.854;20.580;2023-03-19T01:51:17;98893.16;;;0.03;71.89
21760;BME280;11041;50.854;20.580;2023-03-19T01:53:52;98902.16;;;0.09;71.70
21760;BME280;11041;50.854;20.580;2023-03-19T01:56:32;98906.88;;;0.02;71.97
21760;BME280;11041;50.854;20.580;2023-03-19T01:59:19;98908.28;;;0.04;71.77
21760;BME280;11041;50.854;20.580;2023-03-19T02:04:49;98885.38;;;-0.22;72.95
21760;BME280;11041;50.854;20.580;2023-03-19T02:07:19;98902.53;;;-0.16;72.97
21760;BME280;11041;50.854;20.580;2023-03-19T02:09:47;98878.53;;;-0.41;73.16
21760;BME280;11041;50.854;20.580;2023-03-19T02:12:15;98896.50;;;-0.35;73.54
21760;BME280;11041;50.854;20.580;2023-03-19T02:14:42;98915.59;;;-0.25;73.50
21760;BME280;11041;50.854;20.580;2023-03-19T02:17:10;98878.81;;;-0.43;73.46
21760;BME280;11041;50.854;20.580;2023-03-19T02:22:45;98904.09;;;-0.32;73.27
21760;BME280;11041;50.854;20.580;2023-03-19T02:28:13;98871.69;;;-0.61;73.40
21760;BME280;11041;50.854;20.580;2023-03-19T02:30:43;98889.03;;;-0.57;73.90
21760;BME280;11041;50.854;20.580;2023-03-19T02:33:16;98891.75;;;-0.57;74.08
21760;BME280;11041;50.854;20.580;2023-03-19T02:35:46;98918.72;;;-0.45;74.25
21760;BME280;11041;50.854;20.580;2023-03-19T02:38:15;98909.56;;;-0.56;73.92
21760;BME280;11041;50.854;20.580;2023-03-19T02:41:07;98887.19;;;-0.68;73.82
21760;BME280;11041;50.854;20.580;2023-03-19T02:43:38;98902.09;;;-0.66;74.14
21760;BME280;11041;50.854;20.580;2023-03-19T02:46:10;98918.13;;;-0.47;74.40
21760;BME280;11041;50.854;20.580;2023-03-19T02:48:37;98918.75;;;-0.57;74.04
21760;BME280;11041;50.854;20.580;2023-03-19T02:51:04;98895.06;;;-0.67;74.36
21760;BME280;11041;50.854;20.580;2023-03-19T02:53:31;98909.59;;;-0.68;74.45
21760;BME280;11041;50.854;20.580;2023-03-19T02:56:00;98913.94;;;-0.67;74.94
21760;BME280;11041;50.854;20.580;2023-03-19T02:58:26;98924.16;;;-0.69;75.14
21760;BME280;11041;50.854;20.580;2023-03-19T03:00:53;98900.13;;;-0.82;75.13
21760;BME280;11041;50.854;20.580;2023-03-19T03:03:20;98899.44;;;-0.89;75.45
21760;BME280;11041;50.854;20.580;2023-03-19T03:05:46;98901.31;;;-0.90;75.63
21760;BME280;11041;50.854;20.580;2023-03-19T03:08:13;98894.06;;;-1.01;76.29
21760;BME280;11041;50.854;20.580;2023-03-19T03:10:39;98895.81;;;-1.07;76.01
21760;BME280;11041;50.854;20.580;2023-03-19T03:13:06;98912.69;;;-0.99;76.46
21760;BME280;11041;50.854;20.580;2023-03-19T03:15:32;98906.97;;;-1.03;76.10
21760;BME280;11041;50.854;20.580;2023-03-19T03:17:59;98931.56;;;-0.88;76.66
21760;BME280;11041;50.854;20.580;2023-03-19T03:20:26;98920.66;;;-0.93;76.19
21760;BME280;11041;50.854;20.580;2023-03-19T03:22:52;98929.00;;;-0.94;77.08
21760;BME280;11041;50.854;20.580;2023-03-19T03:25:19;98932.53;;;-1.05;76.75
21760;BME280;11041;50.854;20.580;2023-03-19T03:27:46;98911.53;;;-1.27;76.81
21760;BME280;11041;50.854;20.580;2023-03-19T03:30:13;98920.94;;;-1.18;76.62
21760;BME280;11041;50.854;20.580;2023-03-19T03:32:42;98914.84;;;-1.25;76.61
21760;BME280;11041;50.854;20.580;2023-03-19T03:35:09;98916.00;;;-1.21;76.69
21760;BME280;11041;50.854;20.580;2023-03-19T03:37:36;98907.09;;;-1.21;76.92
21760;BME280;11041;50.854;20.580;2023-03-19T03:40:04;98914.59;;;-1.12;76.46
21760;BME280;11041;50.854;20.580;2023-03-19T03:42:35;98904.28;;;-1.15;76.78
21760;BME280;11041;50.854;20.580;2023-03-19T03:45:02;98924.66;;;-1.07;76.09
21760;BME280;11041;50.854;20.580;2023-03-19T03:47:29;98889.63;;;-1.31;76.90
21760;BME280;11041;50.854;20.580;2023-03-19T03:49:55;98896.06;;;-1.32;77.01
21760;BME280;11041;50.854;20.580;2023-03-19T03:52:22;98919.28;;;-1.19;77.17
21760;BME280;11041;50.854;20.580;2023-03-19T03:54:48;98899.81;;;-1.33;77.38
21760;BME280;11041;50.854;20.580;2023-03-19T03:57:15;98907.06;;;-1.33;77.25
21760;BME280;11041;50.854;20.580;2023-03-19T03:59:41;98895.25;;;-1.44;77.47
21760;BME280;11041;50.854;20.580;2023-03-19T04:02:08;98898.16;;;-1.45;77.96
21760;BME280;11041;50.854;20.580;2023-03-19T04:04:35;98913.41;;;-1.39;77.88
21760;BME280;11041;50.854;20.580;2023-03-19T04:07:02;98897.69;;;-1.42;77.85
21760;BME280;11041;50.854;20.580;2023-03-19T04:09:28;98900.97;;;-1.40;78.12
21760;BME280;11041;50.854;20.580;2023-03-19T04:11:54;98915.75;;;-1.31;77.72
21760;BME280;11041;50.854;20.580;2023-03-19T04:14:21;98892.19;;;-1.47;77.69
21760;BME280;11041;50.854;20.580;2023-03-19T04:16:47;98901.34;;;-1.48;77.43
21760;BME280;11041;50.854;20.580;2023-03-19T04:19:14;98910.47;;;-1.38;78.12
21760;BME280;11041;50.854;20.580;2023-03-19T04:21:40;98912.13;;;-1.37;77.37
21760;BME280;11041;50.854;20.580;2023-03-19T04:24:07;98925.94;;;-1.33;77.48
21760;BME280;11041;50.854;20.580;2023-03-19T04:26:36;98944.94;;;-1.28;77.42
21760;BME280;11041;50.854;20.580;2023-03-19T04:29:04;98908.94;;;-1.45;77.82
21760;BME280;11041;50.854;20.580;2023-03-19T04:31:31;98935.09;;;-1.34;77.99
21760;BME280;11041;50.854;20.580;2023-03-19T04:33:57;98886.19;;;-1.61;78.09
21760;BME280;11041;50.854;20.580;2023-03-19T04:36:24;98937.22;;;-1.36;77.94
21760;BME280;11041;50.854;20.580;2023-03-19T04:38:51;98908.25;;;-1.53;77.76
21760;BME280;11041;50.854;20.580;2023-03-19T04:41:17;98936.38;;;-1.37;77.72
21760;BME280;11041;50.854;20.580;2023-03-19T04:43:44;98922.66;;;-1.47;77.78
21760;BME280;11041;50.854;20.580;2023-03-19T04:46:10;98935.31;;;-1.47;78.11
21760;BME280;11041;50.854;20.580;2023-03-19T04:48:37;98925.59;;;-1.48;78.47
21760;BME280;11041;50.854;20.580;2023-03-19T04:51:05;98929.44;;;-1.44;78.94
21760;BME280;11041;50.854;20.580;2023-03-19T04:53:36;98936.50;;;-1.43;78.25
21760;BME280;11041;50.854;20.580;2023-03-19T04:56:03;98923.34;;;-1.52;78.58
21760;BME280;11041;50.854;20.580;2023-03-19T04:58:33;98920.44;;;-1.50;79.01
21760;BME280;11041;50.854;20.580;2023-03-19T05:01:00;98911.63;;;-1.57;78.29
21760;BME280;11041;50.854;20.580;2023-03-19T05:03:27;98908.13;;;-1.58;78.47
21760;BME280;11041;50.854;20.580;2023-03-19T05:05:53;98910.72;;;-1.51;78.95
21760;BME280;11041;50.854;20.580;2023-03-19T05:08:20;98903.91;;;-1.54;78.38
21760;BME280;11041;50.854;20.580;2023-03-19T05:10:47;98934.72;;;-1.38;79.26
21760;BME280;11041;50.854;20.580;2023-03-19T05:13:13;98907.41;;;-1.53;79.27
21760;BME280;11041;50.854;20.580;2023-03-19T05:15:44;98934.50;;;-1.36;78.93
21760;BME280;11041;50.854;20.580;2023-03-19T05:18:11;98930.16;;;-1.37;79.57
21760;BME280;11041;50.854;20.580;2023-03-19T05:20:38;98933.81;;;-1.32;79.68
21760;BME280;11041;50.854;20.580;2023-03-19T05:23:06;98901.56;;;-1.50;79.79
21760;BME280;11041;50.854;20.580;2023-03-19T05:25:33;98909.53;;;-1.43;80.23
21760;BME280;11041;50.854;20.580;2023-03-19T05:28:02;98927.00;;;-1.34;80.04
21760;BME280;11041;50.854;20.580;2023-03-19T05:30:28;98917.16;;;-1.40;80.30
21760;BME280;11041;50.854;20.580;2023-03-19T05:32:57;98932.16;;;-1.21;80.74
21760;BME280;11041;50.854;20.580;2023-03-19T05:35:25;98922.34;;;-1.27;80.20
21760;BME280;11041;50.854;20.580;2023-03-19T05:37:53;98938.25;;;-1.14;80.30
21760;BME280;11041;50.854;20.580;2023-03-19T05:40:20;98943.06;;;-1.04;80.65
21760;BME280;11041;50.854;20.580;2023-03-19T05:42:49;98934.97;;;-1.04;80.56
21760;BME280;11041;50.854;20.580;2023-03-19T05:45:16;98917.38;;;-1.07;80.33
21760;BME280;11041;50.854;20.580;2023-03-19T05:47:46;98929.09;;;-0.89;80.35
21760;BME280;11041;50.854;20.580;2023-03-19T05:50:13;98923.84;;;-0.84;80.66
21760;BME280;11041;50.854;20.580;2023-03-19T05:52:40;98930.03;;;-0.72;80.95
21760;BME280;11041;50.854;20.580;2023-03-19T05:55:07;98940.56;;;-0.58;80.37
21760;BME280;11041;50.854;20.580;2023-03-19T05:57:35;98937.25;;;-0.49;80.46
21760;BME280;11041;50.854;20.580;2023-03-19T06:00:02;98931.13;;;-0.44;80.67
21760;BME280;11041;50.854;20.580;2023-03-19T06:02:30;98926.50;;;-0.32;80.19
21760;BME280;11041;50.854;20.580;2023-03-19T06:04:57;98934.34;;;-0.18;80.56
21760;BME280;11041;50.854;20.580;2023-03-19T06:07:23;98927.97;;;-0.12;80.48
21760;BME280;11041;50.854;20.580;2023-03-19T06:09:50;98924.53;;;-0.08;79.87
21760;BME280;11041;50.854;20.580;2023-03-19T06:12:17;98941.88;;;0.08;79.94
21760;BME280;11041;50.854;20.580;2023-03-19T06:14:43;98940.34;;;0.12;80.03
21760;BME280;11041;50.854;20.580;2023-03-19T06:17:12;98941.81;;;0.20;79.92
21760;BME280;11041;50.854;20.580;2023-03-19T06:19:39;98943.06;;;0.29;80.04
21760;BME280;11041;50.854;20.580;2023-03-19T06:22:05;98941.03;;;0.36;80.02
21760;BME280;11041;50.854;20.580;2023-03-19T06:24:32;98938.72;;;0.45;80.18
21760;BME280;11041;50.854;20.580;2023-03-19T06:27:00;98939.72;;;0.56;80.32
21760;BME280;11041;50.854;20.580;2023-03-19T06:29:26;98946.78;;;0.74;80.22
21760;BME280;11041;50.854;20.580;2023-03-19T06:31:54;98960.63;;;0.94;80.00
21760;BME280;11041;50.854;20.580;2023-03-19T06:34:21;98958.22;;;1.15;79.53
21760;BME280;11041;50.854;20.580;2023-03-19T06:36:48;98958.50;;;1.35;78.42
21760;BME280;11041;50.854;20.580;2023-03-19T06:39:14;98965.84;;;1.57;78.18
21760;BME280;11041;50.854;20.580;2023-03-19T06:41:41;98952.47;;;1.72;76.86
21760;BME280;11041;50.854;20.580;2023-03-19T06:44:07;98963.63;;;1.98;77.19
21760;BME280;11041;50.854;20.580;2023-03-19T06:46:34;98955.09;;;2.11;75.97
21760;BME280;11041;50.854;20.580;2023-03-19T06:49:01;98962.34;;;2.32;74.49
21760;BME280;11041;50.854;20.580;2023-03-19T06:51:28;98955.19;;;2.48;73.86
21760;BME280;11041;50.854;20.580;2023-03-19T06:53:54;98967.03;;;2.69;73.94
21760;BME280;11041;50.854;20.580;2023-03-19T06:56:22;98968.53;;;2.87;71.30
21760;BME280;11041;50.854;20.580;2023-03-19T06:58:49;98955.03;;;2.97;70.53
21760;BME280;11041;50.854;20.580;2023-03-19T07:01:16;98969.59;;;3.18;70.14
21760;BME280;11041;50.854;20.580;2023-03-19T07:03:42;98966.41;;;3.32;68.94
21760;BME280;11041;50.854;20.580;2023-03-19T07:06:09;98961.88;;;3.42;69.37
21760;BME280;11041;50.854;20.580;2023-03-19T07:08:35;98962.78;;;3.58;68.85
21760;BME280;11041;50.854;20.580;2023-03-19T07:11:06;98961.19;;;3.73;68.55
21760;BME280;11041;50.854;20.580;2023-03-19T07:13:33;98959.09;;;3.85;69.18
21760;BME280;11041;50.854;20.580;2023-03-19T07:16:01;98947.69;;;3.93;66.77
21760;BME280;11041;50.854;20.580;2023-03-19T07:18:27;98957.53;;;4.15;66.97
21760;BME280;11041;50.854;20.580;2023-03-19T07:20:54;98959.47;;;4.30;67.57
21760;BME280;11041;50.854;20.580;2023-03-19T07:23:21;98961.13;;;4.41;67.36
21760;BME280;11041;50.854;20.580;2023-03-19T07:25:48;98955.69;;;4.51;67.28
21760;BME280;11041;50.854;20.580;2023-03-19T07:28:15;98952.97;;;4.61;67.22
21760;BME280;11041;50.854;20.580;2023-03-19T07:30:42;98956.81;;;4.70;65.85
21760;BME280;11041;50.854;20.580;2023-03-19T07:33:08;98962.78;;;4.83;67.07
21760;BME280;11041;50.854;20.580;2023-03-19T07:35:35;98953.28;;;4.96;66.12
21760;BME280;11041;50.854;20.580;2023-03-19T07:38:02;98951.34;;;5.06;65.62
21760;BME280;11041;50.854;20.580;2023-03-19T07:40:28;98953.75;;;5.28;60.73
21760;BME280;11041;50.854;20.580;2023-03-19T07:42:55;98964.09;;;5.42;61.89
21760;BME280;11041;50.854;20.580;2023-03-19T07:45:22;98965.13;;;5.61;57.13
21760;BME280;11041;50.854;20.580;2023-03-19T07:47:49;98957.69;;;5.87;56.21
21760;BME280;11041;50.854;20.580;2023-03-19T07:50:17;98957.38;;;6.04;56.82
21760;BME280;11041;50.854;20.580;2023-03-19T07:52:48;98967.63;;;6.23;56.32
21760;BME280;11041;50.854;20.580;2023-03-19T07:55:17;98963.19;;;6.37;56.20
21760;BME280;11041;50.854;20.580;2023-03-19T07:57:43;98964.75;;;6.48;56.41
21760;BME280;11041;50.854;20.580;2023-03-19T08:00:10;98973.94;;;6.63;57.19
21760;BME280;11041;50.854;20.580;2023-03-19T08:02:37;98961.59;;;6.70;56.56
21760;BME280;11041;50.854;20.580;2023-03-19T08:05:05;98964.50;;;6.84;55.62
21760;BME280;11041;50.854;20.580;2023-03-19T08:07:31;98963.28;;;7.00;55.97
21760;BME280;11041;50.854;20.580;2023-03-19T08:09:58;98959.97;;;7.03;54.33
21760;BME280;11041;50.854;20.580;2023-03-19T08:12:25;98959.00;;;7.18;54.54
21760;BME280;11041;50.854;20.580;2023-03-19T08:14:52;98963.00;;;7.31;53.70
21760;BME280;11041;50.854;20.580;2023-03-19T08:17:19;98951.44;;;7.39;53.66
21760;BME280;11041;50.854;20.580;2023-03-19T08:19:46;98952.38;;;7.54;52.91
21760;BME280;11041;50.854;20.580;2023-03-19T08:22:13;98954.59;;;7.76;48.00
21760;BME280;11041;50.854;20.580;2023-03-19T08:24:40;98954.56;;;8.00;49.65
21760;BME280;11041;50.854;20.580;2023-03-19T08:27:06;98946.44;;;8.14;48.40
21760;BME280;11041;50.854;20.580;2023-03-19T08:29:34;98955.69;;;8.37;47.69
21760;BME280;11041;50.854;20.580;2023-03-19T08:32:00;98963.66;;;8.57;47.31
21760;BME280;11041;50.854;20.580;2023-03-19T08:34:27;98947.34;;;8.66;48.22
21760;BME280;11041;50.854;20.580;2023-03-19T08:36:53;98954.97;;;8.88;47.65
21760;BME280;11041;50.854;20.580;2023-03-19T08:39:20;98949.31;;;8.98;47.22
21760;BME280;11041;50.854;20.580;2023-03-19T08:41:46;98954.00;;;9.11;45.90
21760;BME280;11041;50.854;20.580;2023-03-19T08:44:13;98950.00;;;9.23;45.91
21760;BME280;11041;50.854;20.580;2023-03-19T08:46:39;98946.75;;;9.34;45.96
21760;BME280;11041;50.854;20.580;2023-03-19T08:49:07;98944.44;;;9.42;46.04
21760;BME280;11041;50.854;20.580;2023-03-19T08:51:34;98953.22;;;9.57;46.39
21760;BME280;11041;50.854;20.580;2023-03-19T08:54:00;98944.25;;;9.66;46.08
21760;BME280;11041;50.854;20.580;2023-03-19T08:56:27;98938.66;;;9.71;46.17
21760;BME280;11041;50.854;20.580;2023-03-19T08:58:56;98930.84;;;9.78;46.29
21760;BME280;11041;50.854;20.580;2023-03-19T09:01:23;98934.00;;;9.85;46.17
21760;BME280;11041;50.854;20.580;2023-03-19T09:03:49;98928.19;;;9.87;44.13
21760;BME280;11041;50.854;20.580;2023-03-19T09:06:16;98938.84;;;10.02;45.17
21760;BME280;11041;50.854;20.580;2023-03-19T09:08:42;98928.09;;;10.06;45.38
21760;BME280;11041;50.854;20.580;2023-03-19T09:11:10;98940.03;;;10.23;44.28
21760;BME280;11041;50.854;20.580;2023-03-19T09:13:37;98925.50;;;10.23;44.31
21760;BME280;11041;50.854;20.580;2023-03-19T09:16:04;98931.41;;;10.30;44.52
21760;BME280;11041;50.854;20.580;2023-03-19T09:18:33;98924.50;;;10.33;44.19
21760;BME280;11041;50.854;20.580;2023-03-19T09:20:59;98930.50;;;10.35;44.57
21760;BME280;11041;50.854;20.580;2023-03-19T09:23:27;98936.88;;;10.44;44.25
21760;BME280;11041;50.854;20.580;2023-03-19T09:25:53;98933.56;;;10.56;42.21
21760;BME280;11041;50.854;20.580;2023-03-19T09:28:20;98935.84;;;10.76;39.75
21760;BME280;11041;50.854;20.580;2023-03-19T09:30:49;98920.59;;;10.70;40.71
21760;BME280;11041;50.854;20.580;2023-03-19T09:33:19;98928.41;;;10.77;41.62
21760;BME280;11041;50.854;20.580;2023-03-19T09:35:52;98909.16;;;10.77;41.95
21760;BME280;11041;50.854;20.580;2023-03-19T09:38:21;98919.59;;;10.88;39.62
21760;BME280;11041;50.854;20.580;2023-03-19T09:44:28;98917.00;;;11.15;40.23
21760;BME280;11041;50.854;20.580;2023-03-19T09:47:26;98918.09;;;11.36;38.25
21760;BME280;11041;50.854;20.580;2023-03-19T09:50:02;98911.94;;;11.30;38.78
21760;BME280;11041;50.854;20.580;2023-03-19T09:57:52;98917.16;;;11.49;36.18
21760;BME280;11041;50.854;20.580;2023-03-19T10:00:34;98914.25;;;11.46;35.65
21760;BME280;11041;50.854;20.580;2023-03-19T10:06:25;98911.41;;;11.60;36.01
21760;BME280;11041;50.854;20.580;2023-03-19T10:15:31;98897.59;;;11.51;37.36
21760;BME280;11041;50.854;20.580;2023-03-19T10:21:03;98893.44;;;11.71;38.09
21760;BME280;11041;50.854;20.580;2023-03-19T10:24:08;98897.50;;;11.73;37.93
21760;BME280;11041;50.854;20.580;2023-03-19T10:26:36;98891.38;;;11.77;38.22
21760;BME280;11041;50.854;20.580;2023-03-19T10:29:21;98888.22;;;11.92;36.14
21760;BME280;11041;50.854;20.580;2023-03-19T10:35:01;98881.44;;;12.07;36.20
21760;BME280;11041;50.854;20.580;2023-03-19T10:37:34;98886.66;;;12.17;36.05
21760;BME280;11041;50.854;20.580;2023-03-19T10:40:02;98885.16;;;12.46;33.71
21760;BME280;11041;50.854;20.580;2023-03-19T10:45:26;98880.81;;;12.53;33.80
21760;BME280;11041;50.854;20.580;2023-03-19T10:47:58;98882.44;;;12.54;34.73
21760;BME280;11041;50.854;20.580;2023-03-19T10:51:15;98874.66;;;12.56;35.42
21760;BME280;11041;50.854;20.580;2023-03-19T10:55:56;98867.00;;;12.71;34.57
21760;BME280;11041;50.854;20.580;2023-03-19T10:58:29;98871.06;;;12.82;34.45
21760;BME280;11041;50.854;20.580;2023-03-19T11:01:05;98862.91;;;12.94;33.91
21760;BME280;11041;50.854;20.580;2023-03-19T11:03:37;98865.31;;;13.05;33.59
21760;BME280;11041;50.854;20.580;2023-03-19T11:06:35;98855.44;;;13.04;34.41
21760;BME280;11041;50.854;20.580;2023-03-19T11:09:17;98841.78;;;12.98;35.75
21760;BME280;11041;50.854;20.580;2023-03-19T11:11:48;98853.97;;;13.06;35.23
21760;BME280;11041;50.854;20.580;2023-03-19T11:14:37;98841.28;;;13.05;34.52
21760;BME280;11041;50.854;20.580;2023-03-19T11:17:27;98847.72;;;13.27;34.33
21760;BME280;11041;50.854;20.580;2023-03-19T11:19:58;98851.72;;;13.47;33.30
21760;BME280;11041;50.854;20.580;2023-03-19T11:22:30;98849.31;;;13.45;34.30
21760;BME280;11041;50.854;20.580;2023-03-19T11:25:16;98843.28;;;13.52;34.28
21760;BME280;11041;50.854;20.580;2023-03-19T11:28:02;98843.06;;;13.57;33.96
21760;BME280;11041;50.854;20.580;2023-03-19T11:31:14;98836.56;;;13.61;33.21
21760;BME280;11041;50.854;20.580;2023-03-19T11:48:30;98822.66;;;14.21;32.29
21760;BME280;11041;50.854;20.580;2023-03-19T11:51:09;98819.56;;;14.22;32.82
21760;BME280;11041;50.854;20.580;2023-03-19T11:56:54;98812.13;;;14.35;32.30
21760;BME280;11041;50.854;20.580;2023-03-19T11:59:56;98808.44;;;14.31;32.59
21760;BME280;11041;50.854;20.580;2023-03-19T12:06:01;98806.59;;;14.35;32.46
21760;BME280;11041;50.854;20.580;2023-03-19T12:14:32;98795.00;;;14.63;32.11
21760;BME280;11041;50.854;20.580;2023-03-19T12:17:46;98788.31;;;14.64;31.73
21760;BME280;11041;50.854;20.580;2023-03-19T12:20:42;98775.50;;;14.59;31.75
21760;BME280;11041;50.854;20.580;2023-03-19T12:23:35;98779.06;;;14.60;31.36
21760;BME280;11041;50.854;20.580;2023-03-19T12:27:08;98780.13;;;14.55;31.66
21760;BME280;11041;50.854;20.580;2023-03-19T12:29:28;98787.56;;;14.55;31.29
21760;BME280;11041;50.854;20.580;2023-03-19T12:35:15;98772.97;;;14.66;30.79
21760;BME280;11041;50.854;20.580;2023-03-19T12:38:19;98776.22;;;14.68;31.30
21760;BME280;11041;50.854;20.580;2023-03-19T12:41:05;98773.59;;;14.72;29.81
21760;BME280;11041;50.854;20.580;2023-03-19T12:43:50;98770.22;;;14.66;30.55
21760;BME280;11041;50.854;20.580;2023-03-19T12:49:33;98763.03;;;14.86;29.82
21760;BME280;11041;50.854;20.580;2023-03-19T12:55:05;98767.16;;;14.93;29.62
21760;BME280;11041;50.854;20.580;2023-03-19T13:15:37;98754.38;;;15.00;30.04
21760;BME280;11041;50.854;20.580;2023-03-19T13:23:43;98732.38;;;15.04;29.45
21760;BME280;11041;50.854;20.580;2023-03-19T13:26:22;98734.19;;;15.12;30.51
21760;BME280;11041;50.854;20.580;2023-03-19T13:29:36;98714.72;;;15.08;30.78
21760;BME280;11041;50.854;20.580;2023-03-19T13:32:34;98722.22;;;15.20;30.32
21760;BME280;11041;50.854;20.580;2023-03-19T13:35:35;98733.03;;;15.38;28.08
21760;BME280;11041;50.854;20.580;2023-03-19T13:44:27;98726.94;;;15.07;30.74
21760;BME280;11041;50.854;20.580;2023-03-19T13:50:29;98732.47;;;15.20;29.77
21760;BME280;11041;50.854;20.580;2023-03-19T13:53:22;98706.75;;;15.19;29.77
21760;BME280;11041;50.854;20.580;2023-03-19T13:56:11;98715.28;;;15.26;29.40
21760;BME280;11041;50.854;20.580;2023-03-19T14:52:43;98681.91;;;14.49;30.98
21760;BME280;11041;50.854;20.580;2023-03-19T14:55:15;98677.28;;;14.41;31.43
21760;BME280;11041;50.854;20.580;2023-03-19T14:57:48;98673.34;;;14.30;32.05
21760;BME280;11041;50.854;20.580;2023-03-19T15:00:18;98671.84;;;14.32;31.65
21760;BME280;11041;50.854;20.580;2023-03-19T15:08:03;98678.53;;;14.31;30.83
21760;BME280;11041;50.854;20.580;2023-03-19T15:27:44;98680.78;;;13.41;34.91
21760;BME280;11041;50.854;20.580;2023-03-19T15:31:05;98674.56;;;13.24;35.81
21760;BME280;11041;50.854;20.580;2023-03-19T15:34:47;98702.47;;;13.22;36.34
21760;BME280;11041;50.854;20.580;2023-03-19T16:21:26;98709.91;;;11.05;46.71
21760;BME280;11041;50.854;20.580;2023-03-19T16:24:17;98734.50;;;11.02;47.33
21760;BME280;11041;50.854;20.580;2023-03-19T16:27:41;98724.69;;;10.78;48.09
21760;BME280;11041;50.854;20.580;2023-03-19T16:30:33;98722.34;;;10.63;48.75
21760;BME280;11041;50.854;20.580;2023-03-19T16:33:03;98725.88;;;10.55;49.37
21760;BME280;11041;50.854;20.580;2023-03-19T16:35:57;98728.41;;;10.42;50.20
21760;BME280;11041;50.854;20.580;2023-03-19T16:38:51;98718.53;;;10.19;51.09
21760;BME280;11041;50.854;20.580;2023-03-19T16:41:28;98720.03;;;10.02;51.57
21760;BME280;11041;50.854;20.580;2023-03-19T16:44:20;98729.72;;;10.00;51.99
21760;BME280;11041;50.854;20.580;2023-03-19T16:46:55;98736.59;;;9.89;52.44
21760;BME280;11041;50.854;20.580;2023-03-19T16:49:25;98741.19;;;9.79;53.27
21760;BME280;11041;50.854;20.580;2023-03-19T16:51:58;98733.22;;;9.55;53.73
21760;BME280;11041;50.854;20.580;2023-03-19T16:54:58;98738.75;;;9.42;53.52
21760;BME280;11041;50.854;20.580;2023-03-19T17:18:22;98720.66;;;8.30;56.09
21760;BME280;11041;50.854;20.580;2023-03-19T17:23:19;98729.00;;;8.20;55.74
21760;BME280;11041;50.854;20.580;2023-03-19T17:30:46;98715.72;;;7.80;56.30
21760;BME280;11041;50.854;20.580;2023-03-19T17:38:25;98720.50;;;7.69;55.79
21760;BME280;11041;50.854;20.580;2023-03-19T17:40:53;98716.53;;;7.62;56.18